sensor_id;sensor_type;location;lat;lon;timestamp;pressure;altitude;pressure_sealevel;temperature;humidity
22775;BME280;11554;51.106;3.684;2023-06-26T00:00:00;101360.65999999999;;;21.23;80.19
22775;BME280;11554;51.106;3.684;2023-06-26T00:05:00;101359.69;;;21.15;80.42
22775;BME280;11554;51.106;3.684;2023-06-26T00:10:00;101351.45;;;21.08;80.82
22775;BME280;11554;51.106;3.684;2023-06-26T00:15:00;101358.87;;;21.00;80.79
22775;BME280;11554;51.106;3.684;2023-06-26T00:20:00;101373.25;;;20.91;82.06
22775;BME280;11554;51.106;3.684;2023-06-26T00:25:00;101370.89;;;20.85;81.94
22775;BME280;11554;51.106;3.684;2023-06-26T00:30:00;101371.57999999999;;;20.78;82.5
22775;BME280;11554;51.106;3.684;2023-06-26T00:35:00;101373.17;;;20.75;83.75
22775;BME280;11554;51.106;3.684;2023-06-26T00:40:00;101380.18;;;20.71;84.03
22775;BME280;11554;51.106;3.684;2023-06-26T00:45:00;101385.26000000001;;;20.63;85.21
22775;BME280;11554;51.106;3.684;2023-06-26T00:50:00;101386.37999999999;;;20.59;85.98
22775;BME280;11554;51.106;3.684;2023-06-26T00:55:00;101383.28;;;20.56;86.55
22775;BME280;11554;51.106;3.684;2023-06-26T01:00:01;101381.1;;;20.49;87.29
22775;BME280;11554;51.106;3.684;2023-06-26T01:05:00;101380.69;;;20.50;87.75
22775;BME280;11554;51.106;3.684;2023-06-26T01:10:00;101388.2;;;20.46;88.39
22775;BME280;11554;51.106;3.684;2023-06-26T01:15:00;101384.66;;;20.44;88.51
22775;BME280;11554;51.106;3.684;2023-06-26T01:20:00;101382.51000000001;;;20.41;89.31
22775;BME280;11554;51.106;3.684;2023-06-26T01:25:03;101389.45;;;20.31;89.3
22775;BME280;11554;51.106;3.684;2023-06-26T01:30:00;101400.31;;;20.18;90.66
22775;BME280;11554;51.106;3.684;2023-06-26T01:35:00;101402.11;;;20.07;91.45
22775;BME280;11554;51.106;3.684;2023-06-26T01:40:00;101414.17;;;19.96;92.65
22775;BME280;11554;51.106;3.684;2023-06-26T01:45:00;101409.83;;;19.89;93.09
22775;BME280;11554;51.106;3.684;2023-06-26T01:50:02;101414.81999999999;;;19.81;94.75
22775;BME280;11554;51.106;3.684;2023-06-26T01:55:02;101420.76;;;19.67;95.26
22775;BME280;11554;51.106;3.684;2023-06-26T02:00:00;101426.79000000001;;;19.60;95.88
22775;BME280;11554;51.106;3.684;2023-06-26T02:05:00;101432.42;;;19.48;97.2
22775;BME280;11554;51.106;3.684;2023-06-26T02:10:00;101437.67;;;19.42;97.27
22775;BME280;11554;51.106;3.684;2023-06-26T02:15:00;101435.56999999999;;;19.32;97.53
22775;BME280;11554;51.106;3.684;2023-06-26T02:20:00;101440.41;;;19.22;98.39
22775;BME280;11554;51.106;3.684;2023-06-26T02:25:00;101439.70000000001;;;19.13;98.74
22775;BME280;11554;51.106;3.684;2023-06-26T02:30:00;101455.06;;;19.03;99.11
22775;BME280;11554;51.106;3.684;2023-06-26T02:35:00;101451.97;;;18.97;99.81
22775;BME280;11554;51.106;3.684;2023-06-26T02:40:00;101454.11;;;18.89;100.0
22775;BME280;11554;51.106;3.684;2023-06-26T02:45:00;101460.41;;;18.80;99.86
22775;BME280;11554;51.106;3.684;2023-06-26T02:50:00;101461.35;;;18.75;100.0
22775;BME280;11554;51.106;3.684;2023-06-26T02:55:00;101466.85;;;18.64;100.0
22775;BME280;11554;51.106;3.684;2023-06-26T03:00:00;101472.01;;;18.57;100.0
22775;BME280;11554;51.106;3.684;2023-06-26T03:05:00;101483.61;;;18.48;100.0
22775;BME280;11554;51.106;3.684;2023-06-26T03:10:00;101491.61;;;18.38;100.0
22775;BME280;11554;51.106;3.684;2023-06-26T03:15:00;101495.18000000001;;;18.27;100.0
22775;BME280;11554;51.106;3.684;2023-06-26T03:20:00;101500.56;;;18.20;100.0
22775;BME280;11554;51.106;3.684;2023-06-26T03:25:01;101497.66;;;18.12;100.0
22775;BME280;11554;51.106;3.684;2023-06-26T03:30:00;101501.68;;;18.04;100.0
22775;BME280;11554;51.106;3.684;2023-06-26T03:35:00;101503.97;;;17.96;100.0
22775;BME280;11554;51.106;3.684;2023-06-26T03:40:00;101503.7;;;17.89;100.0
22775;BME280;11554;51.106;3.684;2023-06-26T03:45:00;101511.04000000001;;;17.83;100.0
22775;BME280;11554;51.106;3.684;2023-06-26T03:50:00;101517.85;;;17.77;100.0
22775;BME280;11554;51.106;3.684;2023-06-26T03:55:00;101522.5;;;17.75;100.0
22775;BME280;11554;51.106;3.684;2023-06-26T04:00:00;101531.19;;;17.70;100.0
22775;BME280;11554;51.106;3.684;2023-06-26T04:05:00;101536.01999999999;;;17.70;100.0
22775;BME280;11554;51.106;3.684;2023-06-26T04:10:00;101548.6;;;17.66;100.0
22775;BME280;11554;51.106;3.684;2023-06-26T04:15:00;101551.87;;;17.63;100.0
22775;BME280;11554;51.106;3.684;2023-06-26T04:20:00;101555.38;;;17.61;100.0
22775;BME280;11554;51.106;3.684;2023-06-26T04:25:01;101553.95999999999;;;17.58;100.0
22775;BME280;11554;51.106;3.684;2023-06-26T04:30:00;101558.58;;;17.59;100.0
22775;BME280;11554;51.106;3.684;2023-06-26T04:35:00;101571.01;;;17.68;100.0
22775;BME280;11554;51.106;3.684;2023-06-26T04:40:00;101580.19;;;17.70;100.0
22775;BME280;11554;51.106;3.684;2023-06-26T04:45:00;101580.59;;;17.90;100.0
22775;BME280;11554;51.106;3.684;2023-06-26T04:50:00;101584.16;;;18.84;98.67
22775;BME280;11554;51.106;3.684;2023-06-26T04:55:00;101583.84;;;19.61;94.63
22775;BME280;11554;51.106;3.684;2023-06-26T05:00:00;101592.04;;;19.84;90.62
22775;BME280;11554;51.106;3.684;2023-06-26T05:05:00;101601.76;;;20.36;88.39
22775;BME280;11554;51.106;3.684;2023-06-26T05:10:00;101609.3;;;20.57;85.67
22775;BME280;11554;51.106;3.684;2023-06-26T05:15:00;101613.84000000001;;;21.30;84.84
22775;BME280;11554;51.106;3.684;2023-06-26T05:20:00;101619.42;;;21.83;82.85
22775;BME280;11554;51.106;3.684;2023-06-26T05:25:00;101626.14;;;22.03;80.43
22775;BME280;11554;51.106;3.684;2023-06-26T05:30:00;101631.47;;;22.29;80.67
22775;BME280;11554;51.106;3.684;2023-06-26T05:35:00;101632.86;;;22.84;76.76
22775;BME280;11554;51.106;3.684;2023-06-26T05:40:00;101625.68;;;22.99;76.67
22775;BME280;11554;51.106;3.684;2023-06-26T05:45:00;101625.83;;;23.70;75.72
22775;BME280;11554;51.106;3.684;2023-06-26T05:50:00;101629.45999999999;;;23.88;73.93
22775;BME280;11554;51.106;3.684;2023-06-26T05:55:00;101638.17;;;24.68;73.22
22775;BME280;11554;51.106;3.684;2023-06-26T06:00:00;101643.15000000001;;;25.12;73.31
22775;BME280;11554;51.106;3.684;2023-06-26T06:05:00;101654.13;;;25.64;69.4
22775;BME280;11554;51.106;3.684;2023-06-26T06:10:00;101655.1;;;24.94;68.23
22775;BME280;11554;51.106;3.684;2023-06-26T06:15:00;101668.65000000001;;;25.25;67.15
22775;BME280;11554;51.106;3.684;2023-06-26T06:20:00;101680.43000000001;;;24.89;67.91
22775;BME280;11554;51.106;3.684;2023-06-26T06:25:00;101687.49;;;24.90;67.36
22775;BME280;11554;51.106;3.684;2023-06-26T06:30:00;101687.41;;;25.53;67.75
22775;BME280;11554;51.106;3.684;2023-06-26T06:35:00;101703.75;;;26.15;65.92
22775;BME280;11554;51.106;3.684;2023-06-26T06:40:00;101708.48;;;25.88;64.94
22775;BME280;11554;51.106;3.684;2023-06-26T06:45:00;101713.36;;;26.21;63.22
22775;BME280;11554;51.106;3.684;2023-06-26T06:50:00;101726.98000000001;;;26.15;62.84
22775;BME280;11554;51.106;3.684;2023-06-26T06:55:00;101735.53;;;26.09;61.29
22775;BME280;11554;51.106;3.684;2023-06-26T07:00:00;101747.34;;;26.49;62.09
22775;BME280;11554;51.106;3.684;2023-06-26T07:05:00;101744.28;;;26.78;62.64
22775;BME280;11554;51.106;3.684;2023-06-26T07:10:00;101739.97;;;26.98;61.6
22775;BME280;11554;51.106;3.684;2023-06-26T07:15:00;101745.87;;;26.89;61.12
22775;BME280;11554;51.106;3.684;2023-06-26T07:20:00;101751.58;;;26.61;61.82
22775;BME280;11554;51.106;3.684;2023-06-26T07:25:00;101760.65999999999;;;26.58;61.87
22775;BME280;11554;51.106;3.684;2023-06-26T07:30:00;101754.25;;;26.83;61.28
22775;BME280;11554;51.106;3.684;2023-06-26T07:35:00;101752.70000000001;;;26.96;59.9
22775;BME280;11554;51.106;3.684;2023-06-26T07:40:00;101764.69;;;27.67;60.3
22775;BME280;11554;51.106;3.684;2023-06-26T07:45:00;101772.27;;;27.77;59.56
22775;BME280;11554;51.106;3.684;2023-06-26T07:50:00;101768.31;;;27.42;58.97
22775;BME280;11554;51.106;3.684;2023-06-26T07:55:00;101781.7;;;27.48;58.97
22775;BME280;11554;51.106;3.684;2023-06-26T08:00:00;101782.86;;;27.52;58.75
22775;BME280;11554;51.106;3.684;2023-06-26T08:05:00;101782.26;;;27.60;58.59
22775;BME280;11554;51.106;3.684;2023-06-26T08:10:00;101794.48;;;27.98;58.8
22775;BME280;11554;51.106;3.684;2023-06-26T08:15:00;101798.32;;;25.95;60.14
22775;BME280;11554;51.106;3.684;2023-06-26T08:20:00;101790.89;;;27.20;59.32
22775;BME280;11554;51.106;3.684;2023-06-26T08:25:00;101793.02;;;27.63;57.92
22775;BME280;11554;51.106;3.684;2023-06-26T08:30:00;101789.20000000001;;;28.13;57.62
22775;BME280;11554;51.106;3.684;2023-06-26T08:35:00;101799.83;;;26.70;60.66
22775;BME280;11554;51.106;3.684;2023-06-26T08:40:00;101794.5;;;27.02;58.31
22775;BME280;11554;51.106;3.684;2023-06-26T08:45:00;101813.64;;;27.07;57.39
22775;BME280;11554;51.106;3.684;2023-06-26T08:50:01;101818.12999999999;;;27.26;56.07
22775;BME280;11554;51.106;3.684;2023-06-26T08:55:00;101828.02;;;26.95;57.43
22775;BME280;11554;51.106;3.684;2023-06-26T09:00:00;101833.26;;;27.43;57.89
22775;BME280;11554;51.106;3.684;2023-06-26T09:05:00;101836.89;;;27.55;55.96
22775;BME280;11554;51.106;3.684;2023-06-26T09:10:00;101829.74;;;28.13;56.1
22775;BME280;11554;51.106;3.684;2023-06-26T09:15:00;101836.28;;;27.81;55.72
22775;BME280;11554;51.106;3.684;2023-06-26T09:20:00;101828.83;;;28.32;55.92
22775;BME280;11554;51.106;3.684;2023-06-26T09:25:00;101829.11;;;28.38;54.24
22775;BME280;11554;51.106;3.684;2023-06-26T09:30:00;101838.31;;;28.67;54.88
22775;BME280;11554;51.106;3.684;2023-06-26T09:35:01;101844.59000000001;;;26.97;57.41
22775;BME280;11554;51.106;3.684;2023-06-26T09:40:00;101848.36;;;28.26;55.2
22775;BME280;11554;51.106;3.684;2023-06-26T09:45:00;101861.87999999999;;;29.05;54.14
22775;BME280;11554;51.106;3.684;2023-06-26T09:50:01;101865.61;;;29.01;53.9
22775;BME280;11554;51.106;3.684;2023-06-26T09:55:07;101855.67;;;29.49;52.8
22775;BME280;11554;51.106;3.684;2023-06-26T10:00:00;101869.67;;;29.29;51.4
22775;BME280;11554;51.106;3.684;2023-06-26T10:05:00;101882.28;;;29.37;52.81
22775;BME280;11554;51.106;3.684;2023-06-26T10:10:00;101880.8;;;29.14;52.53
22775;BME280;11554;51.106;3.684;2023-06-26T10:15:00;101870.1;;;28.97;51.36
22775;BME280;11554;51.106;3.684;2023-06-26T10:20:01;101871.23;;;29.08;52.27
22775;BME280;11554;51.106;3.684;2023-06-26T10:25:00;101867.11;;;29.64;52.37
22775;BME280;11554;51.106;3.684;2023-06-26T10:30:00;101868.19;;;29.79;51.24
22775;BME280;11554;51.106;3.684;2023-06-26T10:35:00;101886.08;;;29.21;50.64
22775;BME280;11554;51.106;3.684;2023-06-26T10:40:00;101864.63;;;29.41;51.21
22775;BME280;11554;51.106;3.684;2023-06-26T10:45:08;101880.28;;;28.13;52.09
22775;BME280;11554;51.106;3.684;2023-06-26T10:55:00;101901.34000000001;;;27.42;51.96
22775;BME280;11554;51.106;3.684;2023-06-26T11:05:00;101906.97;;;27.88;52.48
22775;BME280;11554;51.106;3.684;2023-06-26T11:10:00;101912.23;;;28.16;51.94
22775;BME280;11554;51.106;3.684;2023-06-26T11:15:00;101924.77;;;27.98;52.82
22775;BME280;11554;51.106;3.684;2023-06-26T11:20:00;101912.45;;;28.43;52.35
22775;BME280;11554;51.106;3.684;2023-06-26T11:25:00;101919.98;;;29.05;50.93
22775;BME280;11554;51.106;3.684;2023-06-26T11:30:00;101917.0;;;28.81;49.75
22775;BME280;11554;51.106;3.684;2023-06-26T11:35:00;101921.81;;;28.57;50.63
22775;BME280;11554;51.106;3.684;2023-06-26T11:45:00;101925.76000000001;;;29.23;49.21
22775;BME280;11554;51.106;3.684;2023-06-26T11:50:01;101916.31;;;29.75;50.06
22775;BME280;11554;51.106;3.684;2023-06-26T11:55:00;101913.94;;;29.66;47.51
22775;BME280;11554;51.106;3.684;2023-06-26T12:00:10;101932.15;;;29.53;49.91
22775;BME280;11554;51.106;3.684;2023-06-26T12:05:00;101933.51;;;29.03;49.65
22775;BME280;11554;51.106;3.684;2023-06-26T12:10:00;101939.08;;;29.35;47.84
22775;BME280;11554;51.106;3.684;2023-06-26T12:15:00;101930.94;;;30.22;48.03
22775;BME280;11554;51.106;3.684;2023-06-26T12:20:00;101937.98000000001;;;29.91;48.84
22775;BME280;11554;51.106;3.684;2023-06-26T12:25:00;101927.42;;;30.29;47.83
22775;BME280;11554;51.106;3.684;2023-06-26T12:30:02;101934.97;;;30.43;46.59
22775;BME280;11554;51.106;3.684;2023-06-26T12:35:00;101932.18000000001;;;29.97;48.48
22775;BME280;11554;51.106;3.684;2023-06-26T12:40:00;101937.3;;;29.24;48.66
22775;BME280;11554;51.106;3.684;2023-06-26T12:45:09;101939.12;;;30.29;46.24
22775;BME280;11554;51.106;3.684;2023-06-26T12:50:04;101937.5;;;29.66;45.81
22775;BME280;11554;51.106;3.684;2023-06-26T12:55:00;101935.13;;;30.43;47.14
22775;BME280;11554;51.106;3.684;2023-06-26T13:00:00;101943.24;;;30.01;46.91
22775;BME280;11554;51.106;3.684;2023-06-26T13:05:00;101947.79999999999;;;29.81;46.46
22775;BME280;11554;51.106;3.684;2023-06-26T13:10:00;101945.01000000001;;;30.47;45.14
22775;BME280;11554;51.106;3.684;2023-06-26T13:15:00;101935.1;;;31.02;46.78
22775;BME280;11554;51.106;3.684;2023-06-26T13:20:00;101941.21;;;31.32;45.87
22775;BME280;11554;51.106;3.684;2023-06-26T13:25:00;101932.89;;;30.88;45.56
22775;BME280;11554;51.106;3.684;2023-06-26T13:30:00;101936.83;;;31.70;46.41
22775;BME280;11554;51.106;3.684;2023-06-26T13:35:00;101947.27;;;31.41;44.95
22775;BME280;11554;51.106;3.684;2023-06-26T13:40:00;101945.17;;;30.85;43.43
22775;BME280;11554;51.106;3.684;2023-06-26T13:45:00;101948.0;;;30.73;44.83
22775;BME280;11554;51.106;3.684;2023-06-26T13:50:00;101947.22;;;30.73;45.81
22775;BME280;11554;51.106;3.684;2023-06-26T13:55:00;101952.59;;;30.12;47.68
22775;BME280;11554;51.106;3.684;2023-06-26T14:00:00;101951.73;;;30.15;49.11
22775;BME280;11554;51.106;3.684;2023-06-26T14:05:00;101946.04000000001;;;29.51;50.43
22775;BME280;11554;51.106;3.684;2023-06-26T14:10:00;101950.0;;;28.65;52.55
22775;BME280;11554;51.106;3.684;2023-06-26T14:15:00;101956.84;;;29.11;52.51
22775;BME280;11554;51.106;3.684;2023-06-26T14:20:00;101948.6;;;29.08;52.09
22775;BME280;11554;51.106;3.684;2023-06-26T14:25:00;101957.26;;;28.79;52.7
22775;BME280;11554;51.106;3.684;2023-06-26T14:30:00;101956.14;;;29.38;51.67
22775;BME280;11554;51.106;3.684;2023-06-26T14:35:00;101952.59;;;28.58;51.18
22775;BME280;11554;51.106;3.684;2023-06-26T14:40:00;101953.7;;;28.78;51.01
22775;BME280;11554;51.106;3.684;2023-06-26T14:45:00;101956.89;;;28.78;51.75
22775;BME280;11554;51.106;3.684;2023-06-26T14:50:00;101963.94;;;29.01;52.26
22775;BME280;11554;51.106;3.684;2023-06-26T14:55:00;101967.76999999999;;;29.01;50.74
22775;BME280;11554;51.106;3.684;2023-06-26T15:00:00;101972.58;;;28.48;52.04
22775;BME280;11554;51.106;3.684;2023-06-26T15:05:00;101977.48;;;28.27;51.95
22775;BME280;11554;51.106;3.684;2023-06-26T15:10:00;101967.56;;;28.67;52.15
22775;BME280;11554;51.106;3.684;2023-06-26T15:15:00;101977.33;;;28.90;50.45
22775;BME280;11554;51.106;3.684;2023-06-26T15:20:00;101977.53;;;28.26;51.3
22775;BME280;11554;51.106;3.684;2023-06-26T15:25:00;101966.64;;;27.69;51.53
22775;BME280;11554;51.106;3.684;2023-06-26T15:30:00;101973.20999999999;;;27.67;52.19
22775;BME280;11554;51.106;3.684;2023-06-26T15:35:00;101969.8;;;27.40;52.96
22775;BME280;11554;51.106;3.684;2023-06-26T15:40:00;101980.90999999999;;;27.04;53.95
22775;BME280;11554;51.106;3.684;2023-06-26T15:45:00;101974.33;;;26.59;54.52
22775;BME280;11554;51.106;3.684;2023-06-26T15:50:00;101981.91;;;26.31;55.26
22775;BME280;11554;51.106;3.684;2023-06-26T15:55:00;101979.29000000001;;;26.11;55.3
22775;BME280;11554;51.106;3.684;2023-06-26T16:00:00;101983.61;;;25.99;57.27
22775;BME280;11554;51.106;3.684;2023-06-26T16:05:00;101987.89;;;25.48;57.5
22775;BME280;11554;51.106;3.684;2023-06-26T16:10:00;101988.11;;;25.47;58.1
22775;BME280;11554;51.106;3.684;2023-06-26T16:15:00;101992.66;;;25.45;58.34
22775;BME280;11554;51.106;3.684;2023-06-26T16:20:00;101985.11;;;25.32;59.77
22775;BME280;11554;51.106;3.684;2023-06-26T16:25:00;101982.81;;;25.33;59.93
22775;BME280;11554;51.106;3.684;2023-06-26T16:30:00;101974.63;;;24.97;60.31
22775;BME280;11554;51.106;3.684;2023-06-26T16:35:00;101972.08;;;25.15;60.74
22775;BME280;11554;51.106;3.684;2023-06-26T16:40:00;101973.41;;;24.94;60.47
22775;BME280;11554;51.106;3.684;2023-06-26T16:45:00;101973.20999999999;;;24.77;61.0
22775;BME280;11554;51.106;3.684;2023-06-26T16:50:00;101968.36;;;24.56;60.55
22775;BME280;11554;51.106;3.684;2023-06-26T16:55:00;101966.8;;;24.45;60.56
22775;BME280;11554;51.106;3.684;2023-06-26T17:00:00;101969.61;;;24.53;60.57
22775;BME280;11554;51.106;3.684;2023-06-26T17:05:00;101971.3;;;24.45;60.68
22775;BME280;11554;51.106;3.684;2023-06-26T17:10:00;101968.7;;;24.16;61.35
22775;BME280;11554;51.106;3.684;2023-06-26T17:15:00;101969.41;;;23.82;62.09
22775;BME280;11554;51.106;3.684;2023-06-26T17:20:00;101970.19;;;23.82;62.99
22775;BME280;11554;51.106;3.684;2023-06-26T17:25:00;101973.19;;;24.09;63.43
22775;BME280;11554;51.106;3.684;2023-06-26T17:30:00;101969.87000000001;;;24.45;62.13
22775;BME280;11554;51.106;3.684;2023-06-26T17:35:00;101965.19;;;24.40;62.08
22775;BME280;11554;51.106;3.684;2023-06-26T17:40:00;101971.62;;;24.27;61.72
22775;BME280;11554;51.106;3.684;2023-06-26T17:45:00;101976.42;;;24.15;61.96
22775;BME280;11554;51.106;3.684;2023-06-26T17:50:00;101981.48;;;23.96;62.23
22775;BME280;11554;51.106;3.684;2023-06-26T17:55:00;101984.99;;;23.80;62.66
22775;BME280;11554;51.106;3.684;2023-06-26T18:00:00;101983.4;;;23.60;62.0
22775;BME280;11554;51.106;3.684;2023-06-26T18:05:00;101981.54;;;23.43;62.98
22775;BME280;11554;51.106;3.684;2023-06-26T18:10:00;101983.97;;;23.26;62.92
22775;BME280;11554;51.106;3.684;2023-06-26T18:15:00;101985.90000000001;;;23.23;63.45
22775;BME280;11554;51.106;3.684;2023-06-26T18:20:00;101992.08;;;22.94;63.92
22775;BME280;11554;51.106;3.684;2023-06-26T18:25:00;101997.24;;;22.80;64.11
22775;BME280;11554;51.106;3.684;2023-06-26T18:30:00;102005.40999999999;;;22.62;64.44
22775;BME280;11554;51.106;3.684;2023-06-26T18:35:00;102003.99;;;22.32;65.77
22775;BME280;11554;51.106;3.684;2023-06-26T18:40:00;102001.5;;;22.19;65.92
22775;BME280;11554;51.106;3.684;2023-06-26T18:45:00;102000.5;;;22.09;66.75
22775;BME280;11554;51.106;3.684;2023-06-26T18:50:00;102000.7;;;22.02;67.29
22775;BME280;11554;51.106;3.684;2023-06-26T18:55:00;102000.2;;;21.95;67.51
22775;BME280;11554;51.106;3.684;2023-06-26T19:00:00;102006.22;;;21.80;68.72
22775;BME280;11554;51.106;3.684;2023-06-26T19:05:00;102014.62;;;21.69;68.84
22775;BME280;11554;51.106;3.684;2023-06-26T19:10:00;102016.76999999999;;;21.59;69.43
22775;BME280;11554;51.106;3.684;2023-06-26T19:15:00;102023.0;;;21.38;70.4
22775;BME280;11554;51.106;3.684;2023-06-26T19:20:00;102029.04999999999;;;21.17;71.02
22775;BME280;11554;51.106;3.684;2023-06-26T19:25:00;102031.12999999999;;;20.98;70.8
22775;BME280;11554;51.106;3.684;2023-06-26T19:30:00;102027.94;;;20.81;70.64
22775;BME280;11554;51.106;3.684;2023-06-26T19:35:00;102024.08;;;20.63;71.29
22775;BME280;11554;51.106;3.684;2023-06-26T19:40:00;102024.84;;;20.48;71.98
22775;BME280;11554;51.106;3.684;2023-06-26T19:45:00;102028.54999999999;;;20.32;71.87
22775;BME280;11554;51.106;3.684;2023-06-26T19:50:00;102031.20999999999;;;20.11;72.28
22775;BME280;11554;51.106;3.684;2023-06-26T19:55:00;102035.44;;;19.98;72.71
22775;BME280;11554;51.106;3.684;2023-06-26T20:00:00;102043.16;;;19.84;72.97
22775;BME280;11554;51.106;3.684;2023-06-26T20:05:00;102045.48;;;19.67;73.07
22775;BME280;11554;51.106;3.684;2023-06-26T20:10:00;102051.49;;;19.55;73.46
22775;BME280;11554;51.106;3.684;2023-06-26T20:15:00;102060.99;;;19.44;74.39
22775;BME280;11554;51.106;3.684;2023-06-26T20:20:00;102062.92;;;19.32;74.61
22775;BME280;11554;51.106;3.684;2023-06-26T20:25:00;102067.89;;;19.17;75.41
22775;BME280;11554;51.106;3.684;2023-06-26T20:30:00;102069.58;;;19.03;76.34
22775;BME280;11554;51.106;3.684;2023-06-26T20:35:00;102072.6;;;18.89;76.31
22775;BME280;11554;51.106;3.684;2023-06-26T20:40:00;102074.55;;;18.75;77.75
22775;BME280;11554;51.106;3.684;2023-06-26T20:45:00;102078.99;;;18.63;77.82
22775;BME280;11554;51.106;3.684;2023-06-26T20:50:00;102081.84999999999;;;18.52;78.12
22775;BME280;11554;51.106;3.684;2023-06-26T20:55:00;102075.95;;;18.40;77.78
22775;BME280;11554;51.106;3.684;2023-06-26T21:00:00;102089.71;;;18.32;79.13
22775;BME280;11554;51.106;3.684;2023-06-26T21:05:00;102090.73;;;18.24;79.03
22775;BME280;11554;51.106;3.684;2023-06-26T21:10:00;102085.42;;;18.16;79.41
22775;BME280;11554;51.106;3.684;2023-06-26T21:15:00;102083.18000000001;;;18.13;80.12
22775;BME280;11554;51.106;3.684;2023-06-26T21:20:00;102087.01999999999;;;18.08;80.25
22775;BME280;11554;51.106;3.684;2023-06-26T21:25:00;102087.85;;;18.00;80.05
22775;BME280;11554;51.106;3.684;2023-06-26T21:30:00;102090.5;;;17.94;80.91
22775;BME280;11554;51.106;3.684;2023-06-26T21:35:00;102084.84999999999;;;17.86;81.41
22775;BME280;11554;51.106;3.684;2023-06-26T21:40:00;102086.91;;;17.77;81.4
22775;BME280;11554;51.106;3.684;2023-06-26T21:45:00;102085.22;;;17.69;82.07
22775;BME280;11554;51.106;3.684;2023-06-26T21:50:00;102086.92;;;17.58;82.6
22775;BME280;11554;51.106;3.684;2023-06-26T21:55:00;102081.05;;;17.49;83.01
22775;BME280;11554;51.106;3.684;2023-06-26T22:00:00;102078.77;;;17.43;83.24
22775;BME280;11554;51.106;3.684;2023-06-26T22:05:00;102076.67;;;17.33;83.28
22775;BME280;11554;51.106;3.684;2023-06-26T22:10:00;102074.78;;;17.29;83.86
22775;BME280;11554;51.106;3.684;2023-06-26T22:15:00;102075.11;;;17.27;85.15
22775;BME280;11554;51.106;3.684;2023-06-26T22:20:00;102079.54999999999;;;17.23;85.44
22775;BME280;11554;51.106;3.684;2023-06-26T22:25:00;102076.81;;;17.19;85.21
22775;BME280;11554;51.106;3.684;2023-06-26T22:30:00;102074.56;;;17.13;85.47
22775;BME280;11554;51.106;3.684;2023-06-26T22:35:00;102063.59;;;17.08;85.91
22775;BME280;11554;51.106;3.684;2023-06-26T22:40:00;102060.97;;;17.04;85.87
22775;BME280;11554;51.106;3.684;2023-06-26T22:45:01;102061.04000000001;;;16.96;86.61
22775;BME280;11554;51.106;3.684;2023-06-26T22:50:00;102056.76;;;16.96;86.88
22775;BME280;11554;51.106;3.684;2023-06-26T22:55:00;102054.71;;;16.91;86.93
22775;BME280;11554;51.106;3.684;2023-06-26T23:00:00;102059.16;;;16.91;86.8
22775;BME280;11554;51.106;3.684;2023-06-26T23:05:00;102058.84;;;16.84;87.04
22775;BME280;11554;51.106;3.684;2023-06-26T23:10:00;102055.38;;;16.81;87.46
22775;BME280;11554;51.106;3.684;2023-06-26T23:15:00;102056.45;;;16.77;87.56
22775;BME280;11554;51.106;3.684;2023-06-26T23:20:00;102051.15;;;16.79;89.21
22775;BME280;11554;51.106;3.684;2023-06-26T23:25:00;102045.9;;;16.76;88.05
22775;BME280;11554;51.106;3.684;2023-06-26T23:30:00;102039.45;;;16.69;88.43
22775;BME280;11554;51.106;3.684;2023-06-26T23:35:00;102038.9;;;16.67;89.02
22775;BME280;11554;51.106;3.684;2023-06-26T23:40:00;102040.12;;;16.64;89.31
22775;BME280;11554;51.106;3.684;2023-06-26T23:45:00;102038.42;;;16.61;89.86
22775;BME280;11554;51.106;3.684;2023-06-26T23:50:00;102030.47;;;16.55;89.67
22775;BME280;11554;51.106;3.684;2023-06-26T23:55:00;102031.7;;;16.51;90.38
